Etusivu
METAR-TAF:

METAR-TAF

Lentoasemat :

Alattion lentoasema

Alattio, Norja

Leveyspiiri: 69-59N, Pituuspiiri: 023-22E, korkeus merenpinnasta: 0 m

Tämänhetkinen sää

Tämä raportti tehtiin 50 minuuttia sitten, kello 04.50 UTC
Tuuli 3 kn etelästä/kaakosta, vaihdellen idän/kaakon ja etelän/lounaan välillä
Lämpötila 4°C
Kosteus 60%
Ilmanpaine 1021 hPa
Näkyvyys 10 km tai enemmän
ei pilviä alle 1500 m:ssä eikä cumulonimbus-pilviä

METAR: ENAT 210450Z 16003KT 120V200 CAVOK 04/M03 Q1021 RMK WIND 700FT 17012KT

Aika: 06:40 (05:40 UTC)

Sääennuste

Tämä raportti tehtiin 40 minuuttia sitten, kello 05.00 UTC
Ennuste voimassa 21. päivästä klo 06 UTC - 21. päivään klo 15 UTC
Tuuli 8 kn etelästä/kaakosta
Näkyvyys 10 km tai enemmän
Muutamia pilviä 3000 ft:n korkeudessa
Hajanaisia pilviä 5000 ft:n korkeudessa

TAF: ENAT 210500Z 2106/2115 15008KT 9999 FEW030 SCT050

Säähavainnot ja -ennusteet yli 4000 lentoasemalta (METAR- ja TAF-raportit).

Käytössä olevat sääasemat on merkitty karttaan keltaisilla ja punaisilla pisteillä.

Aseta hiiri pisteen päälle nähdäksesi sääaseman nimen.

Klikkaa sitten nähdäksesi säähavainnot ja -ennusteet.

Kartan vaihtaminen: klikkaa mustalla rastilla varustettuja vihreitä pisteitä, niin voit zoomata sisään; viivalla varustettua vihreää pistettä, niin voit zoomata ulos tai vihreitä nuolia, niin pääset viereisille kartoille.


METAR-TAF: